Time;durP1;ratioP1;P1;durP2;ratioP2;P2;SDS_P1;SDS_P2;PMS_P1;PMS_P2;Temp;Humidity;BMP_temperature;BMP_pressure;BME280_temperature;BME280_humidity;BME280_pressure;Samples;Min_cycle;Max_cycle;Signal;HPM_P1;HPM_P2
2023/06/18 00:02:30;;;;;;;17.63;15.85;;;19.50;98.20;;;;;;5015264;28;20072;-53
2023/06/18 00:05:16;;;;;;;17.50;15.80;;;19.40;98.60;;;;;;5015251;28;20032;-57
2023/06/18 00:08:02;;;;;;;16.00;14.43;;;19.30;99.10;;;;;;5015196;28;20482;-55
2023/06/18 00:10:48;;;;;;;17.00;15.40;;;19.20;99.60;;;;;;5015625;28;20132;-56
2023/06/18 00:13:34;;;;;;;17.85;15.98;;;19.10;99.90;;;;;;5015336;28;20062;-54
2023/06/18 00:16:20;;;;;;;16.77;15.18;;;19.10;99.90;;;;;;5013548;28;20038;-54
2023/06/18 00:19:06;;;;;;;16.70;15.20;;;19.10;99.90;;;;;;5032858;28;20034;-58
2023/06/18 00:21:53;;;;;;;16.98;15.27;;;19.20;99.90;;;;;;5022288;28;20030;-55
2023/06/18 00:24:39;;;;;;;17.05;15.30;;;19.30;99.90;;;;;;5003322;28;20042;-54
2023/06/18 00:27:25;;;;;;;18.20;16.40;;;19.30;99.90;;;;;;5035863;28;20076;-55
2023/06/18 00:30:11;;;;;;;17.48;15.73;;;19.30;99.90;;;;;;5032618;28;20398;-56
2023/06/18 00:32:58;;;;;;;18.02;16.38;;;19.20;99.90;;;;;;5035037;28;20060;-55
2023/06/18 00:35:44;;;;;;;17.90;16.08;;;19.10;99.90;;;;;;5015881;28;20116;-56
2023/06/18 00:38:32;;;;;;;21.02;18.98;;;19.10;99.90;;;;;;5015679;28;20026;-58
2023/06/18 00:41:18;;;;;;;45.90;37.85;;;19.10;99.90;;;;;;5013341;28;20569;-57
2023/06/18 00:44:08;;;;;;;29.92;26.58;;;19.10;99.90;;;;;;5014674;28;20129;-56
2023/06/18 00:46:56;;;;;;;25.02;22.35;;;19.10;99.90;;;;;;5014183;28;20038;-52
2023/06/18 00:49:43;;;;;;;24.67;22.10;;;19.00;99.90;;;;;;5014518;28;20026;-56
2023/06/18 00:52:32;;;;;;;20.98;18.75;;;19.00;99.90;;;;;;5012821;28;20034;-56
2023/06/18 00:55:18;;;;;;;20.30;17.95;;;19.20;99.90;;;;;;5015656;28;20020;-57
2023/06/18 00:58:05;;;;;;;18.90;16.60;;;19.20;99.90;;;;;;5017981;28;20026;-54
2023/06/18 01:00:51;;;;;;;18.23;16.45;;;19.30;99.90;;;;;;5015520;28;20057;-53
2023/06/18 01:03:37;;;;;;;17.40;15.80;;;19.40;99.90;;;;;;5019379;28;20431;-54
2023/06/18 01:06:24;;;;;;;18.80;17.00;;;19.40;99.90;;;;;;5032675;28;20026;-55
2023/06/18 01:09:12;;;;;;;18.25;16.35;;;19.20;99.90;;;;;;5032652;28;20071;-52
2023/06/18 01:12:00;;;;;;;18.75;16.67;;;19.10;99.90;;;;;;5032492;28;20494;-52
2023/06/18 01:14:50;;;;;;;18.08;15.68;;;18.80;99.90;;;;;;5033051;28;20036;-55
2023/06/18 01:17:37;;;;;;;17.40;15.63;;;18.70;99.90;;;;;;5033147;28;20026;-56
2023/06/18 01:20:25;;;;;;;19.73;17.67;;;18.70;99.90;;;;;;5032490;28;20414;-54
2023/06/18 01:23:27;;;;;;;19.00;16.98;;;18.60;99.90;;;;;;5031913;28;20029;-55
2023/06/18 01:26:13;;;;;;;19.35;17.35;;;18.60;99.90;;;;;;5014834;28;20117;-54
2023/06/18 01:29:00;;;;;;;20.15;18.15;;;18.30;99.90;;;;;;5013862;28;20054;-54
2023/06/18 01:31:46;;;;;;;18.38;16.67;;;18.00;99.90;;;;;;5012941;28;20029;-54
2023/06/18 01:34:32;;;;;;;18.27;16.48;;;17.80;99.90;;;;;;5017860;28;20557;-53
2023/06/18 01:37:33;;;;;;;17.02;15.43;;;17.90;99.90;;;;;;5033183;28;20030;-53
2023/06/18 01:40:49;;;;;;;18.65;16.75;;;18.00;99.90;;;;;;5032890;28;20033;-56
2023/06/18 01:43:37;;;;;;;;;;;18.20;99.90;;;;;;5032736;28;20116;-54
2023/06/18 01:46:28;;;;;;;18.58;16.65;;;18.30;99.90;;;;;;5032406;28;19915;-52
2023/06/18 01:49:17;;;;;;;17.20;15.43;;;18.30;99.90;;;;;;5016998;28;20022;-53
2023/06/18 01:52:05;;;;;;;19.27;15.88;;;18.40;99.90;;;;;;5013182;28;20026;-52
2023/06/18 01:54:52;;;;;;;17.98;16.02;;;18.50;99.90;;;;;;5014681;28;20068;-53
2023/06/18 01:57:38;;;;;;;19.80;17.80;;;18.60;99.90;;;;;;5014208;28;20398;-53
2023/06/18 02:00:25;;;;;;;19.45;17.45;;;18.60;99.90;;;;;;5013943;28;20022;-55
2023/06/18 02:03:10;;;;;;;18.65;16.08;;;18.50;99.90;;;;;;5013935;28;20418;-53
2023/06/18 02:05:56;;;;;;;20.10;18.00;;;18.30;99.90;;;;;;5031658;28;20112;-55
2023/06/18 02:08:42;;;;;;;18.77;16.95;;;18.10;99.90;;;;;;5033204;28;20025;-52
2023/06/18 02:11:28;;;;;;;20.08;17.98;;;18.10;99.90;;;;;;5031929;28;20112;-52
2023/06/18 02:14:14;;;;;;;18.73;16.85;;;17.90;99.90;;;;;;5031394;28;20053;-54
2023/06/18 02:17:01;;;;;;;17.85;16.17;;;17.80;99.90;;;;;;5031733;28;20034;-53
2023/06/18 02:19:47;;;;;;;18.35;16.65;;;17.80;99.90;;;;;;5030427;28;20034;-55
2023/06/18 02:22:33;;;;;;;16.52;14.88;;;17.90;99.90;;;;;;5033028;28;20102;-57
2023/06/18 02:25:28;;;;;;;19.95;17.83;;;18.10;99.90;;;;;;5032109;28;20108;-57
2023/06/18 02:28:14;;;;;;;18.48;16.67;;;18.20;99.90;;;;;;5019573;28;20140;-55
2023/06/18 02:31:01;;;;;;;19.85;17.95;;;18.20;99.90;;;;;;5012448;28;20093;-53
2023/06/18 02:33:47;;;;;;;20.35;18.38;;;18.00;99.90;;;;;;5014282;28;20518;-56
2023/06/18 02:36:34;;;;;;;19.50;17.60;;;17.70;99.90;;;;;;5032572;28;20064;-55
2023/06/18 02:39:20;;;;;;;19.52;17.05;;;17.60;99.90;;;;;;5011782;28;20034;-55
2023/06/18 02:42:06;;;;;;;19.77;17.77;;;17.50;99.90;;;;;;5011339;28;20110;-55
2023/06/18 02:44:53;;;;;;;19.15;17.25;;;17.40;99.90;;;;;;5013098;28;20029;-56
2023/06/18 02:47:39;;;;;;;19.48;17.50;;;17.40;99.90;;;;;;5012929;28;20030;-55
2023/06/18 02:50:25;;;;;;;19.23;17.27;;;17.40;99.90;;;;;;5012888;28;20398;-52
2023/06/18 02:53:11;;;;;;;17.80;16.00;;;17.30;99.90;;;;;;5015323;28;20120;-54
2023/06/18 02:55:57;;;;;;;17.45;15.65;;;17.30;99.90;;;;;;5030334;28;20545;-55
2023/06/18 02:58:43;;;;;;;18.13;16.33;;;17.40;99.90;;;;;;5030921;28;20025;-53
2023/06/18 03:01:32;;;;;;;18.02;16.27;;;17.60;99.90;;;;;;5030945;28;20416;-55
2023/06/18 03:04:18;;;;;;;18.25;16.40;;;17.70;99.90;;;;;;5031325;28;20029;-54
2023/06/18 03:07:04;;;;;;;17.42;15.60;;;17.40;99.90;;;;;;5034134;28;20029;-55
2023/06/18 03:09:50;;;;;;;19.08;16.92;;;17.40;99.90;;;;;;5025594;28;20080;-55
2023/06/18 03:12:36;;;;;;;19.63;17.73;;;17.30;99.90;;;;;;5016952;28;20026;-55
2023/06/18 03:15:22;;;;;;;17.73;16.02;;;17.20;99.90;;;;;;5014744;28;20034;-53
2023/06/18 03:18:08;;;;;;;17.27;15.48;;;17.10;99.90;;;;;;5014341;28;20497;-53
2023/06/18 03:20:55;;;;;;;17.77;16.02;;;17.20;99.90;;;;;;5015798;28;20030;-51
2023/06/18 03:23:41;;;;;;;16.90;15.18;;;17.40;99.90;;;;;;5015083;28;20506;-52
2023/06/18 03:26:27;;;;;;;17.35;15.70;;;17.50;99.90;;;;;;5014996;28;20068;-54
2023/06/18 03:29:13;;;;;;;17.73;16.02;;;17.70;99.90;;;;;;5028201;28;20026;-51
2023/06/18 03:31:59;;;;;;;18.05;16.35;;;17.80;99.90;;;;;;5031823;28;20383;-51
2023/06/18 03:34:48;;;;;;;18.20;16.30;;;17.70;99.90;;;;;;5029492;28;20040;-50
2023/06/18 03:37:34;;;;;;;16.88;15.27;;;17.70;99.90;;;;;;5025631;28;20080;-56
2023/06/18 03:40:20;;;;;;;18.75;16.88;;;17.60;99.90;;;;;;5019527;28;20053;-53
2023/06/18 03:43:07;;;;;;;17.63;16.00;;;17.60;99.90;;;;;;5033705;28;20092;-54
2023/06/18 03:45:53;;;;;;;18.65;16.73;;;17.50;99.90;;;;;;5022309;28;20034;-52
2023/06/18 03:48:41;;;;;;;19.88;17.98;;;17.20;99.90;;;;;;5018222;28;20407;-52
2023/06/18 03:51:27;;;;;;;18.30;16.60;;;17.00;99.90;;;;;;5016482;28;20109;-53
2023/06/18 03:54:13;;;;;;;17.60;15.90;;;16.90;99.90;;;;;;5034844;28;20033;-54
2023/06/18 03:56:59;;;;;;;19.15;17.25;;;17.00;99.90;;;;;;5035205;28;20038;-54
2023/06/18 03:59:45;;;;;;;18.50;16.70;;;17.20;99.90;;;;;;5034926;28;20033;-55
2023/06/18 04:02:31;;;;;;;19.83;17.73;;;17.40;99.90;;;;;;5033954;28;20025;-55
2023/06/18 04:05:17;;;;;;;19.85;17.85;;;17.50;99.90;;;;;;5035255;28;20032;-54
2023/06/18 04:08:04;;;;;;;20.38;18.30;;;17.30;99.90;;;;;;5033823;28;20038;-52
2023/06/18 04:10:50;;;;;;;22.65;18.50;;;17.20;99.90;;;;;;5034290;28;20030;-52
2023/06/18 04:13:36;;;;;;;20.02;17.90;;;17.20;99.90;;;;;;5034966;28;20026;-54
2023/06/18 04:16:22;;;;;;;20.98;18.70;;;17.20;99.90;;;;;;5032166;28;20033;-55
2023/06/18 04:19:07;;;;;;;20.35;18.02;;;17.20;99.90;;;;;;5016122;28;20113;-55
2023/06/18 04:21:53;;;;;;;21.25;18.98;;;17.20;99.90;;;;;;5019004;28;20038;-54
2023/06/18 04:24:39;;;;;;;19.58;17.67;;;17.10;99.90;;;;;;5020300;28;20148;-56
2023/06/18 04:27:25;;;;;;;21.88;18.35;;;17.00;99.90;;;;;;5019192;28;20048;-57
2023/06/18 04:30:11;;;;;;;19.95;17.95;;;17.00;99.90;;;;;;5020697;28;20037;-52
2023/06/18 04:32:57;;;;;;;19.75;17.75;;;16.90;99.90;;;;;;5026120;28;20090;-56
2023/06/18 04:35:45;;;;;;;21.83;19.50;;;16.90;99.90;;;;;;5028133;28;20034;-56
2023/06/18 04:38:31;;;;;;;20.33;18.40;;;16.90;99.90;;;;;;5033923;28;20026;-51
2023/06/18 04:41:17;;;;;;;25.73;20.17;;;17.00;99.90;;;;;;5033391;28;20087;-53
2023/06/18 04:44:03;;;;;;;20.92;18.77;;;17.00;99.90;;;;;;5033454;28;20026;-55
2023/06/18 04:46:49;;;;;;;26.88;18.95;;;16.90;99.90;;;;;;5031187;28;20116;-55
2023/06/18 04:49:35;;;;;;;21.58;19.33;;;16.90;99.90;;;;;;5033054;28;20032;-56
2023/06/18 04:52:21;;;;;;;20.65;18.60;;;16.90;99.90;;;;;;5033368;28;20029;-51
2023/06/18 04:55:08;;;;;;;20.50;18.33;;;16.80;99.90;;;;;;5033299;28;20501;-55
2023/06/18 04:57:54;;;;;;;20.35;17.55;;;16.90;99.90;;;;;;5034213;28;20653;-56
2023/06/18 05:00:40;;;;;;;22.63;19.60;;;16.90;99.90;;;;;;5033618;28;20109;-53
2023/06/18 05:03:26;;;;;;;18.60;16.70;;;16.90;99.90;;;;;;5033053;28;20103;-53
2023/06/18 05:06:12;;;;;;;20.23;17.98;;;17.00;99.90;;;;;;5017580;28;20120;-50
2023/06/18 05:08:58;;;;;;;17.75;15.88;;;17.30;99.90;;;;;;5014354;28;20135;-51
2023/06/18 05:11:44;;;;;;;17.45;15.75;;;17.60;99.90;;;;;;5015051;28;20034;-51
2023/06/18 05:14:30;;;;;;;15.90;14.30;;;17.90;99.90;;;;;;5016923;28;20022;-51
2023/06/18 05:17:16;;;;;;;17.60;15.80;;;18.20;99.90;;;;;;5033156;28;20033;-53
2023/06/18 05:20:04;;;;;;;18.17;16.08;;;18.40;99.90;;;;;;5032903;28;20041;-57
2023/06/18 05:22:51;;;;;;;19.38;17.52;;;18.60;99.90;;;;;;5035223;28;20116;-56
2023/06/18 05:25:37;;;;;;;18.10;16.30;;;18.60;99.90;;;;;;5034515;28;20104;-57
2023/06/18 05:28:23;;;;;;;17.60;15.75;;;18.60;99.90;;;;;;5032136;28;20072;-57
2023/06/18 05:31:09;;;;;;;18.52;15.70;;;18.60;99.90;;;;;;5033251;28;20033;-55
2023/06/18 05:33:55;;;;;;;17.15;15.43;;;18.60;99.90;;;;;;5028729;28;20030;-56
2023/06/18 05:36:41;;;;;;;18.80;16.90;;;18.80;99.90;;;;;;5026415;28;20029;-55
2023/06/18 05:39:32;;;;;;;17.55;15.75;;;18.90;99.90;;;;;;5014771;28;20172;-54
2023/06/18 05:42:21;;;;;;;18.30;16.60;;;19.00;99.90;;;;;;5031833;28;20082;-55
2023/06/18 05:45:08;;;;;;;18.55;16.85;;;19.10;99.90;;;;;;5031245;28;20021;-52
2023/06/18 05:47:54;;;;;;;25.98;23.38;;;19.20;99.90;;;;;;5031919;28;20070;-55
2023/06/18 05:50:41;;;;;;;19.63;17.67;;;19.20;99.90;;;;;;5032330;28;20032;-54
2023/06/18 05:53:27;;;;;;;18.70;16.75;;;19.20;99.90;;;;;;5033018;28;20025;-54
2023/06/18 05:56:14;;;;;;;19.48;17.58;;;19.10;99.90;;;;;;5023516;28;20108;-56
2023/06/18 05:59:00;;;;;;;16.65;14.88;;;19.10;99.90;;;;;;5027316;28;20116;-57
2023/06/18 06:01:46;;;;;;;18.30;16.50;;;19.20;99.90;;;;;;5030245;28;20033;-55
2023/06/18 06:04:33;;;;;;;17.40;15.75;;;19.30;99.90;;;;;;5027763;28;20018;-56
2023/06/18 06:07:22;;;;;;;19.90;16.13;;;19.40;99.90;;;;;;5031064;28;20122;-54
2023/06/18 06:10:09;;;;;;;18.80;16.90;;;19.50;99.80;;;;;;5032362;28;20103;-52
2023/06/18 06:12:55;;;;;;;16.58;15.05;;;19.70;99.60;;;;;;5032489;28;20502;-53
2023/06/18 06:15:41;;;;;;;15.90;14.40;;;19.70;99.50;;;;;;5033081;28;20506;-56
2023/06/18 06:18:27;;;;;;;17.50;15.82;;;19.80;99.40;;;;;;5032866;28;20041;-57
2023/06/18 06:21:13;;;;;;;17.02;15.43;;;20.00;99.00;;;;;;5033823;28;20029;-56
2023/06/18 06:23:59;;;;;;;16.90;15.30;;;20.10;99.10;;;;;;5014499;28;20542;-57
2023/06/18 06:26:45;;;;;;;16.80;15.13;;;20.10;99.00;;;;;;5032589;28;20034;-55
2023/06/18 06:29:31;;;;;;;17.27;15.13;;;20.10;99.00;;;;;;5034897;28;20034;-57
2023/06/18 06:32:20;;;;;;;16.33;14.75;;;20.20;98.70;;;;;;5015411;28;20041;-55
2023/06/18 06:35:06;;;;;;;18.08;16.27;;;20.30;98.90;;;;;;5013026;28;20030;-55
2023/06/18 06:37:52;;;;;;;16.63;15.02;;;20.40;98.50;;;;;;5014062;28;20097;-55
2023/06/18 06:40:38;;;;;;;17.08;15.43;;;20.40;98.70;;;;;;5015743;28;20026;-58
2023/06/18 06:43:24;;;;;;;15.13;13.68;;;20.50;98.80;;;;;;5016866;28;20057;-56
2023/06/18 06:46:10;;;;;;;15.77;14.23;;;20.60;98.30;;;;;;5025793;28;20118;-56
2023/06/18 06:48:56;;;;;;;15.18;13.68;;;20.70;98.00;;;;;;5034696;28;20044;-56
2023/06/18 06:51:42;;;;;;;15.57;14.07;;;20.80;97.80;;;;;;5037509;28;20022;-56
2023/06/18 06:54:28;;;;;;;14.98;13.60;;;20.80;97.30;;;;;;5035551;28;20025;-57
2023/06/18 06:57:14;;;;;;;15.02;13.63;;;21.00;97.10;;;;;;5035348;28;20031;-56
2023/06/18 07:00:01;;;;;;;15.85;14.35;;;21.00;96.90;;;;;;5037757;28;20033;-54
2023/06/18 07:02:47;;;;;;;14.75;13.35;;;21.00;96.80;;;;;;5035411;28;20522;-57
2023/06/18 07:05:33;;;;;;;14.20;12.75;;;21.10;96.60;;;;;;5034847;28;20033;-57
2023/06/18 07:08:19;;;;;;;15.70;14.07;;;21.30;96.30;;;;;;5033885;28;20049;-57
2023/06/18 07:11:05;;;;;;;15.30;13.85;;;21.40;96.10;;;;;;5035181;28;20441;-57
2023/06/18 07:13:51;;;;;;;14.63;13.23;;;21.40;96.00;;;;;;5020759;28;20400;-58
2023/06/18 07:16:37;;;;;;;15.75;14.15;;;21.60;95.50;;;;;;5021454;28;20066;-54
2023/06/18 07:19:23;;;;;;;14.10;12.75;;;21.60;95.80;;;;;;5014770;28;20052;-53
2023/06/18 07:22:09;;;;;;;13.20;11.90;;;21.70;95.70;;;;;;5015032;28;20033;-54
2023/06/18 07:24:56;;;;;;;13.20;11.98;;;21.70;95.60;;;;;;5014466;28;20080;-55
2023/06/18 07:27:42;;;;;;;14.10;12.70;;;21.80;95.30;;;;;;5009629;28;20029;-55
2023/06/18 07:30:28;;;;;;;13.43;12.00;;;21.90;94.70;;;;;;5033660;28;20398;-53
2023/06/18 07:33:14;;;;;;;13.43;12.18;;;21.90;94.60;;;;;;5026790;28;20040;-52
2023/06/18 07:36:00;;;;;;;13.60;12.30;;;21.80;94.70;;;;;;5014865;28;20030;-51
2023/06/18 07:38:48;;;;;;;13.55;11.82;;;21.90;94.70;;;;;;5012445;28;20080;-55
2023/06/18 07:41:34;;;;;;;13.77;12.32;;;21.90;94.10;;;;;;5020529;28;20114;-54
2023/06/18 07:44:21;;;;;;;13.35;12.10;;;22.00;93.80;;;;;;5033004;28;20014;-54
2023/06/18 07:47:07;;;;;;;13.20;12.00;;;22.00;94.00;;;;;;5014420;28;20087;-58
2023/06/18 07:49:53;;;;;;;12.48;11.15;;;22.10;93.80;;;;;;5030297;28;20034;-56
2023/06/18 07:52:39;;;;;;;13.18;11.88;;;22.30;93.70;;;;;;5032811;28;20076;-56
2023/06/18 07:55:25;;;;;;;13.95;12.18;;;22.40;93.40;;;;;;5033316;28;20025;-56
2023/06/18 07:58:11;;;;;;;13.30;11.90;;;22.50;93.40;;;;;;5034133;28;20579;-54
2023/06/18 08:00:56;;;;;;;13.43;12.13;;;22.50;93.20;;;;;;5031982;28;20052;-55
2023/06/18 08:03:42;;;;;;;13.48;12.13;;;22.70;93.20;;;;;;5033729;28;20224;-55
2023/06/18 08:06:28;;;;;;;14.05;12.73;;;22.80;93.00;;;;;;5025896;28;20038;-54
2023/06/18 08:09:15;;;;;;;12.45;11.32;;;22.90;92.70;;;;;;5033902;28;20113;-52
2023/06/18 08:12:01;;;;;;;13.48;12.18;;;23.00;92.80;;;;;;5023999;28;20033;-53
2023/06/18 08:14:47;;;;;;;13.32;12.10;;;23.00;92.50;;;;;;5026605;28;20491;-55
2023/06/18 08:17:33;;;;;;;13.05;11.68;;;23.00;92.30;;;;;;5029264;28;20034;-54
2023/06/18 08:20:19;;;;;;;14.48;12.98;;;23.00;92.50;;;;;;5014472;28;20518;-54
2023/06/18 08:23:05;;;;;;;13.02;11.70;;;22.90;92.30;;;;;;5014735;28;20056;-53
2023/06/18 08:25:51;;;;;;;13.45;12.10;;;23.00;92.40;;;;;;5012034;28;20034;-52
2023/06/18 08:28:37;;;;;;;12.70;11.50;;;23.20;92.10;;;;;;5011733;28;20036;-54
2023/06/18 08:31:23;;;;;;;12.95;11.68;;;23.30;91.90;;;;;;5031368;28;20029;-53
2023/06/18 08:34:09;;;;;;;13.00;11.15;;;23.30;91.60;;;;;;5031666;28;20033;-56
2023/06/18 08:36:55;;;;;;;12.90;11.60;;;23.40;91.30;;;;;;5031332;28;20055;-56
2023/06/18 08:39:40;;;;;;;11.88;10.88;;;23.50;90.90;;;;;;5012765;28;20048;-54
2023/06/18 08:42:27;;;;;;;13.02;11.68;;;23.60;90.80;;;;;;5016821;28;20028;-54
2023/06/18 08:45:14;;;;;;;12.75;11.60;;;23.80;90.70;;;;;;5024990;28;20064;-54
2023/06/18 08:48:04;;;;;;;14.35;12.40;;;23.80;90.70;;;;;;5013775;28;20116;-55
2023/06/18 08:50:58;;;;;;;12.75;11.52;;;23.90;90.50;;;;;;5013798;28;20057;-55
2023/06/18 08:53:49;;;;;;;13.40;12.20;;;23.80;90.60;;;;;;5015413;28;20017;-53
2023/06/18 08:56:45;;;;;;;13.95;12.40;;;23.80;90.40;;;;;;5013223;28;20026;-51
2023/06/18 08:59:33;;;;;;;12.15;10.95;;;23.80;90.60;;;;;;5013301;28;20041;-54
2023/06/18 09:02:21;;;;;;;12.05;10.95;;;23.80;90.50;;;;;;5011925;28;20029;-53
2023/06/18 09:05:08;;;;;;;13.27;11.98;;;24.10;90.20;;;;;;5013658;28;20028;-56
2023/06/18 09:07:54;;;;;;;14.68;13.30;;;24.30;89.90;;;;;;5024190;28;20033;-58
2023/06/18 09:10:40;;;;;;;14.55;13.05;;;24.50;89.20;;;;;;5021806;28;20059;-54
2023/06/18 09:13:26;;;;;;;14.70;11.73;;;24.60;88.60;;;;;;5034181;28;20434;-56
2023/06/18 09:16:12;;;;;;;12.88;11.63;;;24.50;89.00;;;;;;5033751;28;20034;-58
2023/06/18 09:18:59;;;;;;;12.15;10.95;;;24.60;89.40;;;;;;5031987;28;20041;-56
2023/06/18 09:21:46;;;;;;;12.73;11.40;;;24.70;89.20;;;;;;5031943;28;20026;-55
2023/06/18 09:24:33;;;;;;;11.90;10.70;;;24.80;88.90;;;;;;5032162;28;20064;-55
2023/06/18 09:27:19;;;;;;;11.48;10.27;;;24.70;85.40;;;;;;5028801;28;20124;-55
2023/06/18 09:30:06;;;;;;;11.90;10.70;;;24.80;84.00;;;;;;5031317;28;20051;-56
2023/06/18 09:32:57;;;;;;;11.75;10.52;;;24.80;83.50;;;;;;5031767;28;20488;-55
2023/06/18 09:35:44;;;;;;;12.00;10.75;;;25.00;83.50;;;;;;5031820;28;20108;-57
2023/06/18 09:38:37;;;;;;;12.52;11.32;;;25.10;83.50;;;;;;5031293;28;20178;-55
2023/06/18 09:41:27;;;;;;;12.27;11.07;;;25.00;83.80;;;;;;5031583;28;20026;-55
2023/06/18 09:44:22;;;;;;;11.82;10.73;;;24.90;84.30;;;;;;5013664;28;20164;-54
2023/06/18 09:47:12;;;;;;;12.57;9.73;;;25.00;83.40;;;;;;5011616;28;20109;-56
2023/06/18 09:49:58;;;;;;;11.00;9.70;;;24.80;81.00;;;;;;5012270;28;20030;-54
2023/06/18 09:52:47;;;;;;;12.18;11.00;;;24.60;82.40;;;;;;5024903;28;20026;-54
2023/06/18 09:55:33;;;;;;;14.98;11.40;;;24.60;82.70;;;;;;5029240;28;20030;-56
2023/06/18 09:58:19;;;;;;;11.10;10.10;;;24.80;82.10;;;;;;5013185;28;20434;-52
2023/06/18 10:01:05;;;;;;;11.07;9.98;;;25.00;81.90;;;;;;5010548;28;20434;-56
2023/06/18 10:03:51;;;;;;;10.25;9.27;;;25.20;82.00;;;;;;5015527;28;20041;-58
2023/06/18 10:06:40;;;;;;;13.38;10.05;;;25.50;80.10;;;;;;5019329;28;20080;-56
2023/06/18 10:09:35;;;;;;;10.88;9.82;;;25.60;79.10;;;;;;5024634;28;20030;-57
2023/06/18 10:12:22;;;;;;;11.38;10.35;;;25.40;78.70;;;;;;5031681;28;20022;-56
2023/06/18 10:15:12;;;;;;;10.65;9.65;;;25.30;78.60;;;;;;5029970;28;20021;-53
2023/06/18 10:18:01;;;;;;;10.57;9.50;;;25.60;79.20;;;;;;4993259;28;1090559;-53
2023/06/18 10:20:47;;;;;;;11.15;10.02;;;25.90;78.80;;;;;;5032721;28;20021;-56
2023/06/18 10:23:33;;;;;;;10.65;8.85;;;26.10;78.00;;;;;;5031191;28;20417;-55
2023/06/18 10:26:21;;;;;;;9.48;8.57;;;26.00;75.90;;;;;;5031924;28;20383;-55
2023/06/18 10:29:09;;;;;;;9.05;8.25;;;25.80;75.20;;;;;;5026773;28;20054;-55
2023/06/18 10:31:56;;;;;;;9.30;8.38;;;25.80;75.00;;;;;;5013881;28;20033;-55
2023/06/18 10:34:43;;;;;;;9.93;8.93;;;25.80;73.60;;;;;;5020059;28;20087;-56
2023/06/18 10:37:31;;;;;;;8.82;7.97;;;25.30;74.20;;;;;;5030888;28;20041;-54
2023/06/18 10:40:17;;;;;;;10.68;9.57;;;25.10;73.90;;;;;;5017997;28;20069;-55
2023/06/18 10:43:09;;;;;;;8.48;7.68;;;25.10;74.30;;;;;;5013027;28;20061;-53
2023/06/18 10:46:09;;;;;;;9.00;8.10;;;25.30;73.40;;;;;;5025480;28;20108;-55
2023/06/18 10:49:19;;;;;;;9.88;8.55;;;25.40;73.30;;;;;;5013658;28;20038;-54
2023/06/18 10:52:12;;;;;;;10.30;8.57;;;25.60;73.50;;;;;;5011820;28;20446;-56
2023/06/18 10:55:24;;;;;;;8.85;7.68;;;25.90;73.90;;;;;;5011336;28;20025;-51
2023/06/18 10:58:10;;;;;;;9.20;8.27;;;26.10;73.60;;;;;;5019255;28;20034;-56
2023/06/18 11:00:56;;;;;;;9.00;8.07;;;26.40;72.80;;;;;;5012281;28;20510;-53
2023/06/18 11:03:42;;;;;;;9.00;8.10;;;26.40;72.80;;;;;;5012898;28;20038;-57
2023/06/18 11:06:29;;;;;;;8.55;7.75;;;26.40;72.40;;;;;;5012388;28;20498;-55
2023/06/18 11:09:15;;;;;;;9.43;8.50;;;26.50;72.40;;;;;;5015385;28;20017;-54
2023/06/18 11:12:01;;;;;;;7.68;6.97;;;26.70;72.40;;;;;;5023534;28;20435;-51
2023/06/18 11:15:06;;;;;;;8.10;7.40;;;26.50;69.50;;;;;;5031327;28;20030;-56
2023/06/18 11:17:54;;;;;;;7.88;7.05;;;26.20;69.70;;;;;;5031087;28;20102;-55
2023/06/18 11:20:40;;;;;;;8.93;8.07;;;26.30;71.20;;;;;;5029948;28;20842;-55
2023/06/18 11:23:28;;;;;;;8.32;7.53;;;26.40;70.70;;;;;;5030018;28;20079;-56
2023/06/18 11:26:18;;;;;;;8.63;7.82;;;26.50;71.00;;;;;;5032462;28;20037;-56
2023/06/18 11:29:05;;;;;;;9.98;9.05;;;26.60;69.60;;;;;;5033075;28;20037;-56
2023/06/18 11:31:51;;;;;;;8.63;7.63;;;26.50;69.70;;;;;;5014801;28;20026;-53
2023/06/18 11:34:44;;;;;;;9.98;7.45;;;26.70;69.90;;;;;;5014459;28;20109;-53
2023/06/18 11:37:30;;;;;;;8.13;7.32;;;26.80;69.50;;;;;;5021324;28;20025;-57
2023/06/18 11:40:16;;;;;;;8.13;7.32;;;26.90;69.90;;;;;;5034746;28;20040;-55
2023/06/18 11:43:01;;;;;;;8.27;7.43;;;26.70;68.80;;;;;;5034617;28;20586;-55
2023/06/18 11:45:52;;;;;;;8.43;7.47;;;26.40;68.90;;;;;;5034099;28;20445;-56
2023/06/18 11:48:37;;;;;;;9.23;6.63;;;26.20;68.80;;;;;;5035125;28;20124;-55
2023/06/18 11:51:25;;;;;;;7.60;6.90;;;26.30;68.80;;;;;;5031551;28;20017;-54
2023/06/18 11:54:11;;;;;;;7.60;6.90;;;26.50;69.00;;;;;;5034275;28;20025;-56
2023/06/18 11:56:57;;;;;;;7.68;6.97;;;26.50;68.20;;;;;;5031771;28;20029;-57
2023/06/18 11:59:44;;;;;;;7.13;6.00;;;26.50;67.40;;;;;;5034197;28;20040;-56
2023/06/18 12:02:30;;;;;;;6.97;6.28;;;26.70;66.80;;;;;;5029836;28;20037;-55
2023/06/18 12:05:16;;;;;;;7.13;6.47;;;26.90;67.30;;;;;;5023880;28;20071;-54
2023/06/18 12:08:13;;;;;;;7.05;6.45;;;26.90;66.80;;;;;;5026668;28;20052;-56
2023/06/18 12:11:00;;;;;;;7.75;6.95;;;27.20;66.80;;;;;;5036602;28;20033;-55
2023/06/18 12:13:47;;;;;;;8.98;6.93;;;27.40;68.00;;;;;;5036654;28;20120;-55
2023/06/18 12:16:38;;;;;;;8.10;7.30;;;27.60;66.90;;;;;;5035948;28;20486;-55
2023/06/18 12:19:26;;;;;;;9.30;6.85;;;27.70;66.60;;;;;;5035502;28;20533;-53
2023/06/18 12:22:13;;;;;;;8.82;7.22;;;27.70;66.90;;;;;;5027172;28;20072;-51
2023/06/18 12:24:59;;;;;;;6.93;6.22;;;27.50;66.10;;;;;;5014441;28;20465;-55
2023/06/18 12:27:45;;;;;;;8.30;7.60;;;27.60;65.70;;;;;;5014449;28;20037;-53
2023/06/18 12:30:41;;;;;;;8.15;7.25;;;27.60;65.80;;;;;;5014720;28;20026;-55
2023/06/18 12:33:27;;;;;;;8.05;7.25;;;27.80;66.40;;;;;;5014675;28;20026;-55
2023/06/18 12:36:13;;;;;;;9.85;8.75;;;28.00;66.60;;;;;;5015371;28;20521;-56
2023/06/18 12:38:58;;;;;;;8.35;7.05;;;28.30;66.90;;;;;;5027834;28;20029;-56
2023/06/18 12:41:45;;;;;;;7.60;6.82;;;28.50;65.30;;;;;;5015206;28;20034;-59
2023/06/18 12:44:31;;;;;;;6.95;6.35;;;28.30;64.70;;;;;;5014197;28;20520;-55
2023/06/18 12:47:17;;;;;;;7.30;6.60;;;28.00;64.10;;;;;;5014274;28;20069;-52
2023/06/18 12:50:03;;;;;;;7.43;6.75;;;27.60;65.40;;;;;;5015119;28;20156;-54
2023/06/18 12:52:50;;;;;;;7.25;6.53;;;27.50;66.00;;;;;;5021526;28;20029;-55
2023/06/18 12:55:36;;;;;;;10.45;7.50;;;27.60;65.80;;;;;;5033080;28;20022;-55
2023/06/18 12:58:23;;;;;;;7.82;7.13;;;27.90;65.20;;;;;;5035243;28;20490;-57
2023/06/18 13:01:10;;;;;;;7.90;6.88;;;28.20;65.00;;;;;;5035435;28;20037;-57
2023/06/18 13:03:58;;;;;;;7.70;6.47;;;28.20;65.30;;;;;;5031767;28;20057;-55
2023/06/18 13:06:45;;;;;;;7.68;6.88;;;28.30;64.80;;;;;;5030000;28;20025;-56
2023/06/18 13:09:30;;;;;;;11.70;10.50;;;28.40;64.60;;;;;;5046743;28;20109;-55
2023/06/18 13:12:19;;;;;;;9.18;8.20;;;28.70;64.30;;;;;;5022396;28;20021;-55
2023/06/18 13:15:06;;;;;;;9.55;8.10;;;29.00;63.80;;;;;;5013961;28;20390;-54
2023/06/18 13:17:52;;;;;;;8.45;7.60;;;29.50;63.60;;;;;;5012150;28;20096;-55
2023/06/18 13:20:39;;;;;;;9.27;8.02;;;29.90;63.90;;;;;;5035131;28;20091;-56
2023/06/18 13:23:25;;;;;;;7.22;6.63;;;30.10;62.90;;;;;;5031941;28;20494;-55
2023/06/18 13:26:11;;;;;;;7.55;6.90;;;29.30;62.30;;;;;;5022299;28;20056;-55
2023/06/18 13:28:57;;;;;;;8.65;6.68;;;29.00;62.90;;;;;;5013337;28;20022;-55
2023/06/18 13:31:42;;;;;;;6.90;6.30;;;29.30;62.70;;;;;;5012443;28;20066;-54
2023/06/18 13:34:28;;;;;;;7.00;6.40;;;29.40;61.50;;;;;;5025587;28;20382;-55
2023/06/18 13:37:15;;;;;;;7.20;6.38;;;29.90;61.10;;;;;;5028569;28;20029;-57
2023/06/18 13:40:03;;;;;;;9.10;7.07;;;30.20;62.30;;;;;;5024777;28;20029;-56
2023/06/18 13:42:50;;;;;;;6.97;6.38;;;30.50;61.10;;;;;;5032804;28;20184;-58
2023/06/18 13:45:36;;;;;;;6.63;6.07;;;30.40;60.20;;;;;;5030851;28;20037;-55
2023/06/18 13:48:22;;;;;;;7.30;6.70;;;30.30;60.00;;;;;;5028721;28;20076;-58
2023/06/18 13:51:08;;;;;;;7.40;6.80;;;29.80;60.80;;;;;;5023024;28;20645;-57
2023/06/18 13:53:54;;;;;;;8.95;6.68;;;29.40;60.50;;;;;;5023684;28;20034;-56
2023/06/18 13:56:40;;;;;;;7.35;6.43;;;29.50;60.80;;;;;;5023552;28;20037;-55
2023/06/18 13:59:26;;;;;;;7.15;6.47;;;29.60;60.80;;;;;;5034007;28;20069;-54
2023/06/18 14:02:12;;;;;;;6.72;6.10;;;30.20;60.90;;;;;;5031825;28;20033;-57
2023/06/18 14:04:58;;;;;;;6.93;6.32;;;30.70;59.80;;;;;;5025221;28;20028;-56
2023/06/18 14:07:45;;;;;;;7.13;6.53;;;30.60;59.10;;;;;;5024209;28;20029;-54
2023/06/18 14:10:31;;;;;;;6.97;6.38;;;30.70;59.00;;;;;;5026747;28;20033;-59
2023/06/18 14:13:17;;;;;;;7.50;6.78;;;30.60;58.60;;;;;;5021354;28;20025;-56
2023/06/18 14:16:07;;;;;;;6.90;6.30;;;30.70;58.50;;;;;;5022460;28;20022;-56